Погода:Россия/Самарская область/Самара/Источники/OpenWeatherMap/1

Материал из Онлайн справочника
Перейти к навигацииПерейти к поиску

Перевод: Максим Кузьмин (Cubewriter) Контакты:</br>* Skype: cubewriter</br>* E-mail: cubewriter@gmail.com</br>* Максим Кузьмин на freelance.ru
Проверка/Оформление/Редактирование: Мякишев Е.А.


Данные[1]

Все данные

 Дата и время в UTC-форматеТемператураЭто свойство относится к числу специальных свойств данного вики-сайта.Максимальная температура на данный моментМинимальная температура на данный моментСкорость ветраПасмурностьВлажностьАтмосферное давление относительно уровня моряМетеорологическое направление ветраОписание погодного условия
Россия/Самарская область/Самара/Источники/OpenWeatherMap/1/2839968001979-01-01 00:00:00 +0000 UTC-39,45 °C233,7 K <br />-39,01 °F <br />420,66 °R <br />-39,05 °C234,1 K <br />-38,29 °F <br />421,38 °R <br />-40,87 °C232,28 K <br />-41,566 °F <br />418,104 °R <br />2,92 м/с6 %74 %1028 гПа34 градус(градусов)Ясное небо
Россия/Самарская область/Самара/Источники/OpenWeatherMap/1/2840004001979-01-01 01:00:00 +0000 UTC-40,6 °C232,55 K <br />-41,08 °F <br />418,59 °R <br />-40,14 °C233,01 K <br />-40,252 °F <br />419,418 °R <br />-41,31 °C231,84 K <br />-42,358 °F <br />417,312 °R <br />2,58 м/с6 %75 %1028 гПа40 градус(градусов)Ясное небо
Россия/Самарская область/Самара/Источники/OpenWeatherMap/1/2840040001979-01-01 02:00:00 +0000 UTC-40,3 °C232,85 K <br />-40,54 °F <br />419,13 °R <br />-40,3 °C232,85 K <br />-40,54 °F <br />419,13 °R <br />-40,3 °C232,85 K <br />-40,54 °F <br />419,13 °R <br />2,05 м/с2 %75 %1028 гПа49 градус(градусов)Ясное небо
Россия/Самарская область/Самара/Источники/OpenWeatherMap/1/2840076001979-01-01 03:00:00 +0000 UTC-39,21 °C233,94 K <br />-38,578 °F <br />421,092 °R <br />-39,21 °C233,94 K <br />-38,578 °F <br />421,092 °R <br />-39,21 °C233,94 K <br />-38,578 °F <br />421,092 °R <br />2,05 м/с4 %71 %1029 гПа55 градус(градусов)Ясное небо
Россия/Самарская область/Самара/Источники/OpenWeatherMap/1/2840112001979-01-01 04:00:00 +0000 UTC-39,47 °C233,68 K <br />-39,046 °F <br />420,624 °R <br />-39,47 °C233,68 K <br />-39,046 °F <br />420,624 °R <br />-39,47 °C233,68 K <br />-39,046 °F <br />420,624 °R <br />2,25 м/с0 %71 %1029 гПа62 градус(градусов)Ясное небо
Россия/Самарская область/Самара/Источники/OpenWeatherMap/1/2840148001979-01-01 05:00:00 +0000 UTC-39,55 °C233,6 K <br />-39,19 °F <br />420,48 °R <br />-39,55 °C233,6 K <br />-39,19 °F <br />420,48 °R <br />-39,55 °C233,6 K <br />-39,19 °F <br />420,48 °R <br />2,85 м/с10 %71 %1029 гПа66 градус(градусов)Ясное небо
Россия/Самарская область/Самара/Источники/OpenWeatherMap/1/2840184001979-01-01 06:00:00 +0000 UTC-40,26 °C232,89 K <br />-40,468 °F <br />419,202 °R <br />-39,87 °C233,28 K <br />-39,766 °F <br />419,904 °R <br />-41,87 °C231,28 K <br />-43,366 °F <br />416,304 °R <br />2,94 м/с97 %71 %1028 гПа73 градус(градусов)Сплошная облачность: 85-100%
Россия/Самарская область/Самара/Источники/OpenWeatherMap/1/2840220001979-01-01 07:00:00 +0000 UTC-40,14 °C233,01 K <br />-40,252 °F <br />419,418 °R <br />-39,77 °C233,38 K <br />-39,586 °F <br />420,084 °R <br />-41,87 °C231,28 K <br />-43,366 °F <br />416,304 °R <br />2,57 м/с100 %70 %1028 гПа93 градус(градусов)Сплошная облачность: 85-100%
Россия/Самарская область/Самара/Источники/OpenWeatherMap/1/2840256001979-01-01 08:00:00 +0000 UTC-39,42 °C233,73 K <br />-38,956 °F <br />420,714 °R <br />-39,42 °C233,73 K <br />-38,956 °F <br />420,714 °R <br />-39,42 °C233,73 K <br />-38,956 °F <br />420,714 °R <br />2,09 м/с100 %68 %1029 гПа84 градус(градусов)Сплошная облачность: 85-100%
Россия/Самарская область/Самара/Источники/OpenWeatherMap/1/2840292001979-01-01 09:00:00 +0000 UTC-37,54 °C235,61 K <br />-35,572 °F <br />424,098 °R <br />-37,54 °C235,61 K <br />-35,572 °F <br />424,098 °R <br />-37,54 °C235,61 K <br />-35,572 °F <br />424,098 °R <br />2,46 м/с100 %63 %1028 гПа77 градус(градусов)Сплошная облачность: 85-100%
Россия/Самарская область/Самара/Источники/OpenWeatherMap/1/2840328001979-01-01 10:00:00 +0000 UTC-32,88 °C240,27 K <br />-27,184 °F <br />432,486 °R <br />-32,88 °C240,27 K <br />-27,184 °F <br />432,486 °R <br />-32,88 °C240,27 K <br />-27,184 °F <br />432,486 °R <br />2,45 м/с100 %66 %1028 гПа77 градус(градусов)Сплошная облачность: 85-100%
Россия/Самарская область/Самара/Источники/OpenWeatherMap/1/2840364001979-01-01 11:00:00 +0000 UTC-32,55 °C240,6 K <br />-26,59 °F <br />433,08 °R <br />-32,55 °C240,6 K <br />-26,59 °F <br />433,08 °R <br />-32,55 °C240,6 K <br />-26,59 °F <br />433,08 °R <br />2,77 м/с100 %66 %1028 гПа78 градус(градусов)Сплошная облачность: 85-100%
Россия/Самарская область/Самара/Источники/OpenWeatherMap/1/2840400001979-01-01 12:00:00 +0000 UTC-32,99 °C240,16 K <br />-27,382 °F <br />432,288 °R <br />-32,49 °C240,66 K <br />-26,482 °F <br />433,188 °R <br />-33,87 °C239,28 K <br />-28,966 °F <br />430,704 °R <br />2,95 м/с100 %66 %1027 гПа81 градус(градусов)Сплошная облачность: 85-100%
Россия/Самарская область/Самара/Источники/OpenWeatherMap/1/2840436001979-01-01 13:00:00 +0000 UTC-32,87 °C240,28 K <br />-27,166 °F <br />432,504 °R <br />-32,4 °C240,75 K <br />-26,32 °F <br />433,35 °R <br />-33,63 °C239,52 K <br />-28,534 °F <br />431,136 °R <br />3,13 м/с100 %67 %1027 гПа91 градус(градусов)Сплошная облачность: 85-100%
Россия/Самарская область/Самара/Источники/OpenWeatherMap/1/2840472001979-01-01 14:00:00 +0000 UTC-32,58 °C240,57 K <br />-26,644 °F <br />433,026 °R <br />-32,58 °C240,57 K <br />-26,644 °F <br />433,026 °R <br />-32,58 °C240,57 K <br />-26,644 °F <br />433,026 °R <br />3,61 м/с100 %67 %1027 гПа95 градус(градусов)Сплошная облачность: 85-100%
Россия/Самарская область/Самара/Источники/OpenWeatherMap/1/2840508001979-01-01 15:00:00 +0000 UTC-29,43 °C243,72 K <br />-20,974 °F <br />438,696 °R <br />-29,43 °C243,72 K <br />-20,974 °F <br />438,696 °R <br />-29,43 °C243,72 K <br />-20,974 °F <br />438,696 °R <br />3,62 м/с100 %70 %1027 гПа96 градус(градусов)Сплошная облачность: 85-100%
Россия/Самарская область/Самара/Источники/OpenWeatherMap/1/2840544001979-01-01 16:00:00 +0000 UTC-29,4 °C243,75 K <br />-20,92 °F <br />438,75 °R <br />-29,4 °C243,75 K <br />-20,92 °F <br />438,75 °R <br />-29,4 °C243,75 K <br />-20,92 °F <br />438,75 °R <br />3,84 м/с100 %71 %1026 гПа94 градус(градусов)Легкий снег
Россия/Самарская область/Самара/Источники/OpenWeatherMap/1/2840580001979-01-01 17:00:00 +0000 UTC-28,73 °C244,42 K <br />-19,714 °F <br />439,956 °R <br />-28,73 °C244,42 K <br />-19,714 °F <br />439,956 °R <br />-28,73 °C244,42 K <br />-19,714 °F <br />439,956 °R <br />3,98 м/с100 %71 %1026 гПа96 градус(градусов)Легкий снег
Россия/Самарская область/Самара/Источники/OpenWeatherMap/1/2840616001979-01-01 18:00:00 +0000 UTC-29,37 °C243,78 K <br />-20,866 °F <br />438,804 °R <br />-28,71 °C244,44 K <br />-19,678 °F <br />439,992 °R <br />-30,2 °C242,95 K <br />-22,36 °F <br />437,31 °R <br />4,65 м/с100 %72 %1026 гПа96 градус(градусов)Легкий снег
Россия/Самарская область/Самара/Источники/OpenWeatherMap/1/2840652001979-01-01 19:00:00 +0000 UTC-29,32 °C243,83 K <br />-20,776 °F <br />438,894 °R <br />-28,62 °C244,53 K <br />-19,516 °F <br />440,154 °R <br />-30,15 °C243 K <br />-22,27 °F <br />437,4 °R <br />5,02 м/с100 %72 %1025 гПа94 градус(градусов)Легкий снег
Россия/Самарская область/Самара/Источники/OpenWeatherMap/1/2840688001979-01-01 20:00:00 +0000 UTC-28,62 °C244,53 K <br />-19,516 °F <br />440,154 °R <br />-28,62 °C244,53 K <br />-19,516 °F <br />440,154 °R <br />-28,62 °C244,53 K <br />-19,516 °F <br />440,154 °R <br />5,33 м/с100 %72 %1025 гПа91 градус(градусов)Легкий снег
Россия/Самарская область/Самара/Источники/OpenWeatherMap/1/2840724001979-01-01 21:00:00 +0000 UTC-27,09 °C246,06 K <br />-16,762 °F <br />442,908 °R <br />-27,09 °C246,06 K <br />-16,762 °F <br />442,908 °R <br />-27,09 °C246,06 K <br />-16,762 °F <br />442,908 °R <br />5,54 м/с100 %70 %1024 гПа92 градус(градусов)Легкий снег
Россия/Самарская область/Самара/Источники/OpenWeatherMap/1/2840760001979-01-01 22:00:00 +0000 UTC-24,68 °C248,47 K <br />-12,424 °F <br />447,246 °R <br />-24,68 °C248,47 K <br />-12,424 °F <br />447,246 °R <br />-24,68 °C248,47 K <br />-12,424 °F <br />447,246 °R <br />5,9 м/с100 %73 %1024 гПа98 градус(градусов)Легкий снег
Россия/Самарская область/Самара/Источники/OpenWeatherMap/1/2840796001979-01-01 23:00:00 +0000 UTC-24,51 °C248,64 K <br />-12,118 °F <br />447,552 °R <br />-24,51 °C248,64 K <br />-12,118 °F <br />447,552 °R <br />-24,51 °C248,64 K <br />-12,118 °F <br />447,552 °R <br />6,49 м/с100 %74 %1024 гПа99 градус(градусов)Легкий снег
Россия/Самарская область/Самара/Источники/OpenWeatherMap/1/2840832001979-01-02 00:00:00 +0000 UTC-24,77 °C248,38 K <br />-12,586 °F <br />447,084 °R <br />-24,03 °C249,12 K <br />-11,254 °F <br />448,416 °R <br />-25,53 °C247,62 K <br />-13,954 °F <br />445,716 °R <br />6,96 м/с100 %75 %1022 гПа102 градус(градусов)Снег
Россия/Самарская область/Самара/Источники/OpenWeatherMap/1/2840868001979-01-02 01:00:00 +0000 UTC-24,47 °C248,68 K <br />-12,046 °F <br />447,624 °R <br />-23,79 °C249,36 K <br />-10,822 °F <br />448,848 °R <br />-25,19 °C247,96 K <br />-13,342 °F <br />446,328 °R <br />6,72 м/с100 %75 %1021 гПа105 градус(градусов)Снег
Россия/Самарская область/Самара/Источники/OpenWeatherMap/1/2840904001979-01-02 02:00:00 +0000 UTC-23,77 °C249,38 K <br />-10,786 °F <br />448,884 °R <br />-23,77 °C249,38 K <br />-10,786 °F <br />448,884 °R <br />-23,77 °C249,38 K <br />-10,786 °F <br />448,884 °R <br />6,33 м/с100 %75 %1021 гПа104 градус(градусов)Снег
Россия/Самарская область/Самара/Источники/OpenWeatherMap/1/2840940001979-01-02 03:00:00 +0000 UTC-20,59 °C252,56 K <br />-5,062 °F <br />454,608 °R <br />-20,59 °C252,56 K <br />-5,062 °F <br />454,608 °R <br />-20,59 °C252,56 K <br />-5,062 °F <br />454,608 °R <br />6,01 м/с100 %79 %1021 гПа104 градус(градусов)Снег
Россия/Самарская область/Самара/Источники/OpenWeatherMap/1/2840976001979-01-02 04:00:00 +0000 UTC-20,76 °C252,39 K <br />-5,368 °F <br />454,302 °R <br />-20,76 °C252,39 K <br />-5,368 °F <br />454,302 °R <br />-20,76 °C252,39 K <br />-5,368 °F <br />454,302 °R <br />6,4 м/с100 %79 %1020 гПа106 градус(градусов)Снег
Россия/Самарская область/Самара/Источники/OpenWeatherMap/1/2841012001979-01-02 05:00:00 +0000 UTC-20,61 °C252,54 K <br />-5,098 °F <br />454,572 °R <br />-20,61 °C252,54 K <br />-5,098 °F <br />454,572 °R <br />-20,61 °C252,54 K <br />-5,098 °F <br />454,572 °R <br />6,67 м/с100 %79 %1019 гПа109 градус(градусов)Снег
Россия/Самарская область/Самара/Источники/OpenWeatherMap/1/2841048001979-01-02 06:00:00 +0000 UTC-20,2 °C252,95 K <br />-4,36 °F <br />455,31 °R <br />-19,75 °C253,4 K <br />-3,55 °F <br />456,12 °R <br />-21,87 °C251,28 K <br />-7,366 °F <br />452,304 °R <br />6,61 м/с100 %79 %1019 гПа108 градус(градусов)Снег
Россия/Самарская область/Самара/Источники/OpenWeatherMap/1/2841084001979-01-02 07:00:00 +0000 UTC-20,18 °C252,97 K <br />-4,324 °F <br />455,346 °R <br />-19,65 °C253,5 K <br />-3,37 °F <br />456,3 °R <br />-21,87 °C251,28 K <br />-7,366 °F <br />452,304 °R <br />6,02 м/с100 %79 %1018 гПа107 градус(градусов)Снег
Россия/Самарская область/Самара/Источники/OpenWeatherMap/1/2841120001979-01-02 08:00:00 +0000 UTC-19,68 °C253,47 K <br />-3,424 °F <br />456,246 °R <br />-19,68 °C253,47 K <br />-3,424 °F <br />456,246 °R <br />-19,68 °C253,47 K <br />-3,424 °F <br />456,246 °R <br />6,45 м/с100 %79 %1018 гПа110 градус(градусов)Снег
Россия/Самарская область/Самара/Источники/OpenWeatherMap/1/2841156001979-01-02 09:00:00 +0000 UTC-18,88 °C254,27 K <br />-1,984 °F <br />457,686 °R <br />-18,88 °C254,27 K <br />-1,984 °F <br />457,686 °R <br />-18,88 °C254,27 K <br />-1,984 °F <br />457,686 °R <br />6,68 м/с100 %79 %1016 гПа110 градус(градусов)Снег
Россия/Самарская область/Самара/Источники/OpenWeatherMap/1/2841192001979-01-02 10:00:00 +0000 UTC-16,05 °C257,1 K <br />3,11 °F <br />462,78 °R <br />-16,05 °C257,1 K <br />3,11 °F <br />462,78 °R <br />-16,05 °C257,1 K <br />3,11 °F <br />462,78 °R <br />6,43 м/с100 %82 %1015 гПа111 градус(градусов)Снег
Россия/Самарская область/Самара/Источники/OpenWeatherMap/1/2841228001979-01-02 11:00:00 +0000 UTC-16,19 °C256,96 K <br />2,858 °F <br />462,528 °R <br />-16,19 °C256,96 K <br />2,858 °F <br />462,528 °R <br />-16,19 °C256,96 K <br />2,858 °F <br />462,528 °R <br />6,77 м/с100 %82 %1014 гПа116 градус(градусов)Снег
Россия/Самарская область/Самара/Источники/OpenWeatherMap/1/2841264001979-01-02 12:00:00 +0000 UTC-16,58 °C256,57 K <br />2,156 °F <br />461,826 °R <br />-16,05 °C257,1 K <br />3,11 °F <br />462,78 °R <br />-17,15 °C256 K <br />1,13 °F <br />460,8 °R <br />6,83 м/с100 %82 %1013 гПа116 градус(градусов)Снег
Россия/Самарская область/Самара/Источники/OpenWeatherMap/1/2841300001979-01-02 13:00:00 +0000 UTC-16,67 °C256,48 K <br />1,994 °F <br />461,664 °R <br />-16,1 °C257,05 K <br />3,02 °F <br />462,69 °R <br />-17,3 °C255,85 K <br />0,86 °F <br />460,53 °R <br />7,51 м/с100 %82 %1012 гПа115 градус(градусов)Легкий снег
Россия/Самарская область/Самара/Источники/OpenWeatherMap/1/2841336001979-01-02 14:00:00 +0000 UTC-16,11 °C257,04 K <br />3,002 °F <br />462,672 °R <br />-16,11 °C257,04 K <br />3,002 °F <br />462,672 °R <br />-16,11 °C257,04 K <br />3,002 °F <br />462,672 °R <br />7,53 м/с100 %83 %1011 гПа121 градус(градусов)Легкий снег
Россия/Самарская область/Самара/Источники/OpenWeatherMap/1/2841372001979-01-02 15:00:00 +0000 UTC-13,27 °C259,88 K <br />8,114 °F <br />467,784 °R <br />-12,7 °C260,45 K <br />9,14 °F <br />468,81 °R <br />-13,87 °C259,28 K <br />7,034 °F <br />466,704 °R <br />6,89 м/с100 %85 %1010 гПа132 градус(градусов)Снег
Россия/Самарская область/Самара/Источники/OpenWeatherMap/1/2841408001979-01-02 16:00:00 +0000 UTC-13,07 °C260,08 K <br />8,474 °F <br />468,144 °R <br />-12,54 °C260,61 K <br />9,428 °F <br />469,098 °R <br />-13,87 °C259,28 K <br />7,034 °F <br />466,704 °R <br />6,2 м/с100 %85 %1009 гПа136 градус(градусов)Снег
Россия/Самарская область/Самара/Источники/OpenWeatherMap/1/2841444001979-01-02 17:00:00 +0000 UTC-12,77 °C260,38 K <br />9,014 °F <br />468,684 °R <br />-12,77 °C260,38 K <br />9,014 °F <br />468,684 °R <br />-12,77 °C260,38 K <br />9,014 °F <br />468,684 °R <br />6,43 м/с100 %86 %1008 гПа134 градус(градусов)Снег
Россия/Самарская область/Самара/Источники/OpenWeatherMap/1/2841480001979-01-02 18:00:00 +0000 UTC-13,21 °C259,94 K <br />8,222 °F <br />467,892 °R <br />-12,75 °C260,4 K <br />9,05 °F <br />468,72 °R <br />-13,76 °C259,39 K <br />7,232 °F <br />466,902 °R <br />6,6 м/с100 %86 %1008 гПа137 градус(градусов)Снег
Россия/Самарская область/Самара/Источники/OpenWeatherMap/1/2841516001979-01-02 19:00:00 +0000 UTC-13,26 °C259,89 K <br />8,132 °F <br />467,802 °R <br />-12,79 °C260,36 K <br />8,978 °F <br />468,648 °R <br />-13,84 °C259,31 K <br />7,088 °F <br />466,758 °R <br />6,69 м/с100 %86 %1007 гПа140 градус(градусов)Снег
Россия/Самарская область/Самара/Источники/OpenWeatherMap/1/2841552001979-01-02 20:00:00 +0000 UTC-12,9 °C260,25 K <br />8,78 °F <br />468,45 °R <br />-12,9 °C260,25 K <br />8,78 °F <br />468,45 °R <br />-12,9 °C260,25 K <br />8,78 °F <br />468,45 °R <br />6,77 м/с99 %86 %1006 гПа140 градус(градусов)Снег
Россия/Самарская область/Самара/Источники/OpenWeatherMap/1/2841588001979-01-02 21:00:00 +0000 UTC-12,53 °C260,62 K <br />9,446 °F <br />469,116 °R <br />-11,87 °C261,28 K <br />10,634 °F <br />470,304 °R <br />-13,29 °C259,86 K <br />8,078 °F <br />467,748 °R <br />6,55 м/с100 %85 %1005 гПа140 градус(градусов)Снег
Россия/Самарская область/Самара/Источники/OpenWeatherMap/1/2841624001979-01-02 22:00:00 +0000 UTC-10,42 °C262,73 K <br />13,244 °F <br />472,914 °R <br />-9,96 °C263,19 K <br />14,072 °F <br />473,742 °R <br />-11,87 °C261,28 K <br />10,634 °F <br />470,304 °R <br />6,16 м/с100 %86 %1004 гПа140 градус(градусов)Легкий снег
Россия/Самарская область/Самара/Источники/OpenWeatherMap/1/2841660001979-01-02 23:00:00 +0000 UTC-9,76 °C263,39 K <br />14,432 °F <br />474,102 °R <br />-9,76 °C263,39 K <br />14,432 °F <br />474,102 °R <br />-9,76 °C263,39 K <br />14,432 °F <br />474,102 °R <br />6,15 м/с99 %86 %1004 гПа143 градус(градусов)Легкий снег
Россия/Самарская область/Самара/Источники/OpenWeatherMap/1/2841696001979-01-03 00:00:00 +0000 UTC-9,96 °C263,19 K <br />14,072 °F <br />473,742 °R <br />-9,45 °C263,7 K <br />14,99 °F <br />474,66 °R <br />-10,87 °C262,28 K <br />12,434 °F <br />472,104 °R <br />6,07 м/с100 %86 %1003 гПа145 градус(градусов)Легкий снег
Россия/Самарская область/Самара/Источники/OpenWeatherMap/1/2841732001979-01-03 01:00:00 +0000 UTC-9,53 °C263,62 K <br />14,846 °F <br />474,516 °R <br />-9,02 °C264,13 K <br />15,764 °F <br />475,434 °R <br />-10,87 °C262,28 K <br />12,434 °F <br />472,104 °R <br />6,14 м/с100 %87 %1002 гПа145 градус(градусов)Легкий снег
… следующие результаты

См.также

Внешние ссылки